sensor_id;sensor_type;location;lat;lon;timestamp;temperature;humidity
10316;DHT22;5203;48.976;8.306;2023-04-03T00:00:25;6.20;65.40
10316;DHT22;5203;48.976;8.306;2023-04-03T00:02:50;6.20;66.00
10316;DHT22;5203;48.976;8.306;2023-04-03T00:05:16;6.30;66.80
10316;DHT22;5203;48.976;8.306;2023-04-03T00:07:42;6.20;66.30
10316;DHT22;5203;48.976;8.306;2023-04-03T00:10:08;6.20;65.50
10316;DHT22;5203;48.976;8.306;2023-04-03T00:12:34;6.20;65.50
10316;DHT22;5203;48.976;8.306;2023-04-03T00:14:59;6.20;65.40
10316;DHT22;5203;48.976;8.306;2023-04-03T00:17:25;6.20;66.30
10316;DHT22;5203;48.976;8.306;2023-04-03T00:19:51;6.10;65.60
10316;DHT22;5203;48.976;8.306;2023-04-03T00:22:16;6.10;66.60
10316;DHT22;5203;48.976;8.306;2023-04-03T00:24:42;6.20;66.90
10316;DHT22;5203;48.976;8.306;2023-04-03T00:27:08;6.20;65.60
10316;DHT22;5203;48.976;8.306;2023-04-03T00:29:33;6.30;66.40
10316;DHT22;5203;48.976;8.306;2023-04-03T00:31:59;6.30;65.70
10316;DHT22;5203;48.976;8.306;2023-04-03T00:34:25;6.30;66.20
10316;DHT22;5203;48.976;8.306;2023-04-03T00:36:50;6.30;66.80
10316;DHT22;5203;48.976;8.306;2023-04-03T00:39:16;6.20;66.50
10316;DHT22;5203;48.976;8.306;2023-04-03T00:41:42;6.10;66.30
10316;DHT22;5203;48.976;8.306;2023-04-03T00:47:16;6.20;66.90
10316;DHT22;5203;48.976;8.306;2023-04-03T00:49:43;6.20;67.40
10316;DHT22;5203;48.976;8.306;2023-04-03T00:52:13;6.20;66.60
10316;DHT22;5203;48.976;8.306;2023-04-03T00:54:42;6.30;66.80
10316;DHT22;5203;48.976;8.306;2023-04-03T00:57:09;6.20;66.20
10316;DHT22;5203;48.976;8.306;2023-04-03T00:59:38;6.10;66.50
10316;DHT22;5203;48.976;8.306;2023-04-03T01:02:06;6.10;67.20
10316;DHT22;5203;48.976;8.306;2023-04-03T01:07:04;6.20;67.40
10316;DHT22;5203;48.976;8.306;2023-04-03T01:09:33;6.10;67.30
10316;DHT22;5203;48.976;8.306;2023-04-03T01:12:37;6.00;67.20
10316;DHT22;5203;48.976;8.306;2023-04-03T01:15:24;6.10;67.90
10316;DHT22;5203;48.976;8.306;2023-04-03T01:17:55;6.10;67.20
10316;DHT22;5203;48.976;8.306;2023-04-03T01:25:55;6.10;66.80
10316;DHT22;5203;48.976;8.306;2023-04-03T01:28:28;6.00;66.40
10316;DHT22;5203;48.976;8.306;2023-04-03T01:31:23;6.00;65.50
10316;DHT22;5203;48.976;8.306;2023-04-03T01:33:51;6.00;65.40
10316;DHT22;5203;48.976;8.306;2023-04-03T01:36:23;6.00;66.10
10316;DHT22;5203;48.976;8.306;2023-04-03T01:38:50;6.00;65.30
10316;DHT22;5203;48.976;8.306;2023-04-03T01:41:16;6.00;66.20
10316;DHT22;5203;48.976;8.306;2023-04-03T01:43:42;6.00;65.60
10316;DHT22;5203;48.976;8.306;2023-04-03T01:46:08;5.90;66.20
10316;DHT22;5203;48.976;8.306;2023-04-03T01:48:34;5.80;67.10
10316;DHT22;5203;48.976;8.306;2023-04-03T01:51:00;5.80;66.90
10316;DHT22;5203;48.976;8.306;2023-04-03T01:53:26;5.70;67.00
10316;DHT22;5203;48.976;8.306;2023-04-03T01:55:52;5.60;67.20
10316;DHT22;5203;48.976;8.306;2023-04-03T01:58:17;5.50;67.60
10316;DHT22;5203;48.976;8.306;2023-04-03T02:00:43;5.50;67.50
10316;DHT22;5203;48.976;8.306;2023-04-03T02:03:09;5.50;67.40
10316;DHT22;5203;48.976;8.306;2023-04-03T02:05:35;5.40;67.60
10316;DHT22;5203;48.976;8.306;2023-04-03T02:08:01;5.40;68.50
10316;DHT22;5203;48.976;8.306;2023-04-03T02:10:27;5.30;69.30
10316;DHT22;5203;48.976;8.306;2023-04-03T02:12:52;5.30;69.60
10316;DHT22;5203;48.976;8.306;2023-04-03T02:15:18;5.20;70.20
10316;DHT22;5203;48.976;8.306;2023-04-03T02:17:44;5.30;71.20
10316;DHT22;5203;48.976;8.306;2023-04-03T02:20:10;5.20;70.10
10316;DHT22;5203;48.976;8.306;2023-04-03T02:22:35;5.10;71.10
10316;DHT22;5203;48.976;8.306;2023-04-03T02:25:01;5.00;71.40
10316;DHT22;5203;48.976;8.306;2023-04-03T02:27:27;5.10;71.50
10316;DHT22;5203;48.976;8.306;2023-04-03T02:29:53;5.10;71.40
10316;DHT22;5203;48.976;8.306;2023-04-03T02:32:19;5.10;70.90
10316;DHT22;5203;48.976;8.306;2023-04-03T02:34:44;5.10;71.10
10316;DHT22;5203;48.976;8.306;2023-04-03T02:37:10;5.10;70.90
10316;DHT22;5203;48.976;8.306;2023-04-03T02:39:36;5.00;70.80
10316;DHT22;5203;48.976;8.306;2023-04-03T02:42:01;5.10;72.10
10316;DHT22;5203;48.976;8.306;2023-04-03T02:44:27;5.10;71.30
10316;DHT22;5203;48.976;8.306;2023-04-03T02:46:52;5.00;71.00
10316;DHT22;5203;48.976;8.306;2023-04-03T02:49:18;5.10;70.50
10316;DHT22;5203;48.976;8.306;2023-04-03T02:51:44;5.10;71.20
10316;DHT22;5203;48.976;8.306;2023-04-03T02:54:09;5.00;70.60
10316;DHT22;5203;48.976;8.306;2023-04-03T02:56:35;4.90;71.30
10316;DHT22;5203;48.976;8.306;2023-04-03T02:59:01;4.90;72.10
10316;DHT22;5203;48.976;8.306;2023-04-03T03:01:26;4.90;71.80
10316;DHT22;5203;48.976;8.306;2023-04-03T03:03:56;4.90;72.00
10316;DHT22;5203;48.976;8.306;2023-04-03T03:06:22;4.80;71.90
10316;DHT22;5203;48.976;8.306;2023-04-03T03:08:48;4.80;72.90
10316;DHT22;5203;48.976;8.306;2023-04-03T03:11:14;4.70;72.80
10316;DHT22;5203;48.976;8.306;2023-04-03T03:13:39;4.70;73.00
10316;DHT22;5203;48.976;8.306;2023-04-03T03:16:06;4.70;72.80
10316;DHT22;5203;48.976;8.306;2023-04-03T03:18:32;4.60;73.20
10316;DHT22;5203;48.976;8.306;2023-04-03T03:20:59;4.50;73.40
10316;DHT22;5203;48.976;8.306;2023-04-03T03:23:27;4.50;74.20
10316;DHT22;5203;48.976;8.306;2023-04-03T03:25:57;4.40;73.60
10316;DHT22;5203;48.976;8.306;2023-04-03T03:28:23;4.40;74.00
10316;DHT22;5203;48.976;8.306;2023-04-03T03:30:49;4.50;74.00
10316;DHT22;5203;48.976;8.306;2023-04-03T03:33:16;4.50;73.80
10316;DHT22;5203;48.976;8.306;2023-04-03T03:35:42;4.50;74.50
10316;DHT22;5203;48.976;8.306;2023-04-03T03:38:08;4.40;74.60
10316;DHT22;5203;48.976;8.306;2023-04-03T03:40:34;4.30;74.70
10316;DHT22;5203;48.976;8.306;2023-04-03T03:43:00;4.30;74.70
10316;DHT22;5203;48.976;8.306;2023-04-03T03:45:25;4.30;75.20
10316;DHT22;5203;48.976;8.306;2023-04-03T03:47:51;4.30;75.00
10316;DHT22;5203;48.976;8.306;2023-04-03T03:50:16;4.30;75.00
10316;DHT22;5203;48.976;8.306;2023-04-03T03:52:42;4.20;75.10
10316;DHT22;5203;48.976;8.306;2023-04-03T03:55:08;4.30;75.50
10316;DHT22;5203;48.976;8.306;2023-04-03T03:57:33;4.30;75.00
10316;DHT22;5203;48.976;8.306;2023-04-03T03:59:59;4.30;75.20
10316;DHT22;5203;48.976;8.306;2023-04-03T04:02:25;4.30;75.10
10316;DHT22;5203;48.976;8.306;2023-04-03T04:04:51;4.30;75.30
10316;DHT22;5203;48.976;8.306;2023-04-03T04:07:17;4.30;75.00
10316;DHT22;5203;48.976;8.306;2023-04-03T04:09:42;4.30;75.00
10316;DHT22;5203;48.976;8.306;2023-04-03T04:12:08;4.30;75.10
10316;DHT22;5203;48.976;8.306;2023-04-03T04:14:33;4.30;74.50
10316;DHT22;5203;48.976;8.306;2023-04-03T04:16:59;4.30;75.70
10316;DHT22;5203;48.976;8.306;2023-04-03T04:19:25;4.40;75.40
10316;DHT22;5203;48.976;8.306;2023-04-03T04:21:50;4.30;75.40
10316;DHT22;5203;48.976;8.306;2023-04-03T04:24:16;4.40;75.50
10316;DHT22;5203;48.976;8.306;2023-04-03T04:26:41;4.40;75.60
10316;DHT22;5203;48.976;8.306;2023-04-03T04:29:09;4.40;75.00
10316;DHT22;5203;48.976;8.306;2023-04-03T04:31:35;4.50;74.90
10316;DHT22;5203;48.976;8.306;2023-04-03T04:34:01;4.50;74.90
10316;DHT22;5203;48.976;8.306;2023-04-03T04:36:26;4.40;74.90
10316;DHT22;5203;48.976;8.306;2023-04-03T04:38:52;4.40;75.30
10316;DHT22;5203;48.976;8.306;2023-04-03T04:41:20;4.40;76.20
10316;DHT22;5203;48.976;8.306;2023-04-03T04:43:48;4.40;75.40
10316;DHT22;5203;48.976;8.306;2023-04-03T04:46:13;4.50;75.50
10316;DHT22;5203;48.976;8.306;2023-04-03T04:48:39;4.50;76.40
10316;DHT22;5203;48.976;8.306;2023-04-03T04:51:06;4.50;75.40
10316;DHT22;5203;48.976;8.306;2023-04-03T04:53:31;4.40;76.30
10316;DHT22;5203;48.976;8.306;2023-04-03T04:55:57;4.40;75.90
10316;DHT22;5203;48.976;8.306;2023-04-03T04:58:23;4.30;76.30
10316;DHT22;5203;48.976;8.306;2023-04-03T05:00:48;4.30;76.30
10316;DHT22;5203;48.976;8.306;2023-04-03T05:03:14;4.30;76.50
10316;DHT22;5203;48.976;8.306;2023-04-03T05:05:40;4.30;76.70
10316;DHT22;5203;48.976;8.306;2023-04-03T05:08:06;4.40;76.30
10316;DHT22;5203;48.976;8.306;2023-04-03T05:10:33;4.40;76.30
10316;DHT22;5203;48.976;8.306;2023-04-03T05:12:59;4.40;76.30
10316;DHT22;5203;48.976;8.306;2023-04-03T05:15:24;4.40;75.30
10316;DHT22;5203;48.976;8.306;2023-04-03T05:17:50;4.40;73.80
10316;DHT22;5203;48.976;8.306;2023-04-03T05:20:19;4.40;74.20
10316;DHT22;5203;48.976;8.306;2023-04-03T05:22:44;4.40;74.30
10316;DHT22;5203;48.976;8.306;2023-04-03T05:25:10;4.30;74.60
10316;DHT22;5203;48.976;8.306;2023-04-03T05:27:36;4.30;74.60
10316;DHT22;5203;48.976;8.306;2023-04-03T05:30:02;4.30;74.60
10316;DHT22;5203;48.976;8.306;2023-04-03T05:32:28;4.30;74.50
10316;DHT22;5203;48.976;8.306;2023-04-03T05:34:54;4.30;74.20
10316;DHT22;5203;48.976;8.306;2023-04-03T05:37:19;4.20;73.90
10316;DHT22;5203;48.976;8.306;2023-04-03T05:39:45;4.20;74.00
10316;DHT22;5203;48.976;8.306;2023-04-03T05:42:12;4.20;72.80
10316;DHT22;5203;48.976;8.306;2023-04-03T05:44:38;4.20;73.40
10316;DHT22;5203;48.976;8.306;2023-04-03T05:47:04;4.10;72.80
10316;DHT22;5203;48.976;8.306;2023-04-03T05:49:30;4.10;72.80
10316;DHT22;5203;48.976;8.306;2023-04-03T05:51:58;4.10;73.30
10316;DHT22;5203;48.976;8.306;2023-04-03T05:54:29;4.10;73.40
10316;DHT22;5203;48.976;8.306;2023-04-03T05:56:55;4.10;73.00
10316;DHT22;5203;48.976;8.306;2023-04-03T05:59:21;4.10;72.60
10316;DHT22;5203;48.976;8.306;2023-04-03T06:01:47;4.10;72.70
10316;DHT22;5203;48.976;8.306;2023-04-03T06:04:14;4.00;73.70
10316;DHT22;5203;48.976;8.306;2023-04-03T06:06:54;4.00;73.10
10316;DHT22;5203;48.976;8.306;2023-04-03T06:09:23;4.00;73.50
10316;DHT22;5203;48.976;8.306;2023-04-03T06:11:49;4.10;73.50
10316;DHT22;5203;48.976;8.306;2023-04-03T06:14:14;4.00;73.10
10316;DHT22;5203;48.976;8.306;2023-04-03T06:16:40;4.00;73.80
10316;DHT22;5203;48.976;8.306;2023-04-03T06:19:09;4.00;73.10
10316;DHT22;5203;48.976;8.306;2023-04-03T06:21:35;4.00;73.40
10316;DHT22;5203;48.976;8.306;2023-04-03T06:24:02;3.90;73.50
10316;DHT22;5203;48.976;8.306;2023-04-03T06:26:28;4.00;74.00
10316;DHT22;5203;48.976;8.306;2023-04-03T06:28:54;4.20;73.70
10316;DHT22;5203;48.976;8.306;2023-04-03T06:31:20;4.30;72.80
10316;DHT22;5203;48.976;8.306;2023-04-03T06:33:45;4.30;72.00
10316;DHT22;5203;48.976;8.306;2023-04-03T06:36:12;4.40;72.50
10316;DHT22;5203;48.976;8.306;2023-04-03T06:38:37;4.40;72.00
10316;DHT22;5203;48.976;8.306;2023-04-03T06:41:04;4.40;71.80
10316;DHT22;5203;48.976;8.306;2023-04-03T06:43:29;4.50;71.70
10316;DHT22;5203;48.976;8.306;2023-04-03T06:45:56;4.50;72.40
10316;DHT22;5203;48.976;8.306;2023-04-03T06:48:22;4.60;71.70
10316;DHT22;5203;48.976;8.306;2023-04-03T06:50:48;4.70;71.40
10316;DHT22;5203;48.976;8.306;2023-04-03T06:53:14;4.60;70.80
10316;DHT22;5203;48.976;8.306;2023-04-03T06:55:40;4.70;71.80
10316;DHT22;5203;48.976;8.306;2023-04-03T06:58:06;4.70;71.90
10316;DHT22;5203;48.976;8.306;2023-04-03T07:00:32;4.60;71.30
10316;DHT22;5203;48.976;8.306;2023-04-03T07:02:58;4.70;71.70
10316;DHT22;5203;48.976;8.306;2023-04-03T07:05:24;4.80;71.90
10316;DHT22;5203;48.976;8.306;2023-04-03T07:07:51;4.80;71.70
10316;DHT22;5203;48.976;8.306;2023-04-03T07:10:17;4.90;71.10
10316;DHT22;5203;48.976;8.306;2023-04-03T07:12:42;4.90;70.90
10316;DHT22;5203;48.976;8.306;2023-04-03T07:15:09;5.00;71.20
10316;DHT22;5203;48.976;8.306;2023-04-03T07:17:35;5.00;70.60
10316;DHT22;5203;48.976;8.306;2023-04-03T07:20:02;4.90;70.50
10316;DHT22;5203;48.976;8.306;2023-04-03T07:22:29;4.90;72.00
10316;DHT22;5203;48.976;8.306;2023-04-03T07:24:56;5.10;71.30
10316;DHT22;5203;48.976;8.306;2023-04-03T07:27:22;5.10;71.80
10316;DHT22;5203;48.976;8.306;2023-04-03T07:29:47;5.20;71.10
10316;DHT22;5203;48.976;8.306;2023-04-03T07:32:16;5.20;71.20
10316;DHT22;5203;48.976;8.306;2023-04-03T07:34:43;5.20;71.20
10316;DHT22;5203;48.976;8.306;2023-04-03T07:37:09;5.20;71.40
10316;DHT22;5203;48.976;8.306;2023-04-03T07:39:35;5.20;71.00
10316;DHT22;5203;48.976;8.306;2023-04-03T07:42:01;5.30;71.80
10316;DHT22;5203;48.976;8.306;2023-04-03T07:44:27;5.50;71.40
10316;DHT22;5203;48.976;8.306;2023-04-03T07:46:53;5.60;70.50
10316;DHT22;5203;48.976;8.306;2023-04-03T07:49:20;5.70;70.00
10316;DHT22;5203;48.976;8.306;2023-04-03T07:51:48;5.80;70.40
10316;DHT22;5203;48.976;8.306;2023-04-03T07:54:14;5.90;69.90
10316;DHT22;5203;48.976;8.306;2023-04-03T07:56:40;6.10;69.50
10316;DHT22;5203;48.976;8.306;2023-04-03T07:59:08;6.10;69.10
10316;DHT22;5203;48.976;8.306;2023-04-03T08:01:34;6.20;68.30
10316;DHT22;5203;48.976;8.306;2023-04-03T08:04:00;6.30;68.30
10316;DHT22;5203;48.976;8.306;2023-04-03T08:06:25;6.40;67.50
10316;DHT22;5203;48.976;8.306;2023-04-03T08:08:51;6.60;67.30
10316;DHT22;5203;48.976;8.306;2023-04-03T08:11:17;6.70;67.20
10316;DHT22;5203;48.976;8.306;2023-04-03T08:13:44;6.90;65.50
10316;DHT22;5203;48.976;8.306;2023-04-03T08:16:15;7.00;65.10
10316;DHT22;5203;48.976;8.306;2023-04-03T08:18:41;7.10;64.90
10316;DHT22;5203;48.976;8.306;2023-04-03T08:21:11;7.20;63.60
10316;DHT22;5203;48.976;8.306;2023-04-03T08:23:38;7.30;63.20
10316;DHT22;5203;48.976;8.306;2023-04-03T08:26:17;7.40;63.00
10316;DHT22;5203;48.976;8.306;2023-04-03T08:28:43;7.40;63.10
10316;DHT22;5203;48.976;8.306;2023-04-03T08:31:12;7.40;62.90
10316;DHT22;5203;48.976;8.306;2023-04-03T08:33:40;7.40;62.60
10316;DHT22;5203;48.976;8.306;2023-04-03T08:36:14;7.40;62.20
10316;DHT22;5203;48.976;8.306;2023-04-03T08:38:41;7.40;61.70
10316;DHT22;5203;48.976;8.306;2023-04-03T08:41:29;7.30;60.70
10316;DHT22;5203;48.976;8.306;2023-04-03T08:52:50;8.00;58.20
10316;DHT22;5203;48.976;8.306;2023-04-03T08:55:23;8.20;59.00
10316;DHT22;5203;48.976;8.306;2023-04-03T09:00:28;8.20;59.70
10316;DHT22;5203;48.976;8.306;2023-04-03T09:02:56;8.40;58.40
10316;DHT22;5203;48.976;8.306;2023-04-03T09:10:34;8.40;55.40
10316;DHT22;5203;48.976;8.306;2023-04-03T09:15:33;8.70;53.30
10316;DHT22;5203;48.976;8.306;2023-04-03T09:18:04;8.30;54.50
10316;DHT22;5203;48.976;8.306;2023-04-03T09:20:44;8.30;54.30
10316;DHT22;5203;48.976;8.306;2023-04-03T09:25:43;9.00;52.50
10316;DHT22;5203;48.976;8.306;2023-04-03T09:28:09;9.00;53.60
10316;DHT22;5203;48.976;8.306;2023-04-03T09:30:36;8.80;52.80
10316;DHT22;5203;48.976;8.306;2023-04-03T09:33:03;8.50;51.60
10316;DHT22;5203;48.976;8.306;2023-04-03T09:35:34;8.40;51.60
10316;DHT22;5203;48.976;8.306;2023-04-03T09:40:37;8.40;53.20
10316;DHT22;5203;48.976;8.306;2023-04-03T09:43:24;8.40;51.30
10316;DHT22;5203;48.976;8.306;2023-04-03T09:45:51;8.40;51.50
10316;DHT22;5203;48.976;8.306;2023-04-03T09:48:25;8.30;52.70
10316;DHT22;5203;48.976;8.306;2023-04-03T09:53:36;8.40;52.70
10316;DHT22;5203;48.976;8.306;2023-04-03T09:56:09;8.80;50.90
10316;DHT22;5203;48.976;8.306;2023-04-03T09:58:53;9.30;51.40
10316;DHT22;5203;48.976;8.306;2023-04-03T10:01:35;9.60;48.40
10316;DHT22;5203;48.976;8.306;2023-04-03T10:04:13;9.80;47.10
10316;DHT22;5203;48.976;8.306;2023-04-03T10:09:24;10.20;42.60
10316;DHT22;5203;48.976;8.306;2023-04-03T10:12:02;10.40;45.70
10316;DHT22;5203;48.976;8.306;2023-04-03T10:14:34;10.30;42.40
10316;DHT22;5203;48.976;8.306;2023-04-03T10:25:04;9.80;41.60
10316;DHT22;5203;48.976;8.306;2023-04-03T10:39:32;9.90;39.50
10316;DHT22;5203;48.976;8.306;2023-04-03T10:44:45;10.40;39.20
10316;DHT22;5203;48.976;8.306;2023-04-03T10:47:23;11.00;36.70
10316;DHT22;5203;48.976;8.306;2023-04-03T10:49:55;10.70;35.90
10316;DHT22;5203;48.976;8.306;2023-04-03T10:52:39;11.00;35.80
10316;DHT22;5203;48.976;8.306;2023-04-03T10:57:56;11.40;35.70
10316;DHT22;5203;48.976;8.306;2023-04-03T11:00:35;11.60;33.30
10316;DHT22;5203;48.976;8.306;2023-04-03T11:03:15;11.90;35.20
10316;DHT22;5203;48.976;8.306;2023-04-03T11:05:48;12.00;35.30
10316;DHT22;5203;48.976;8.306;2023-04-03T11:11:06;11.40;35.20
10316;DHT22;5203;48.976;8.306;2023-04-03T11:14:05;11.30;35.40
10316;DHT22;5203;48.976;8.306;2023-04-03T11:16:39;11.40;34.50
10316;DHT22;5203;48.976;8.306;2023-04-03T11:21:42;10.70;37.00
10316;DHT22;5203;48.976;8.306;2023-04-03T11:24:22;10.60;35.90
10316;DHT22;5203;48.976;8.306;2023-04-03T11:26:50;10.60;36.20
10316;DHT22;5203;48.976;8.306;2023-04-03T11:29:22;10.40;36.50
10316;DHT22;5203;48.976;8.306;2023-04-03T11:34:39;10.10;37.90
10316;DHT22;5203;48.976;8.306;2023-04-03T11:37:33;10.10;37.70
10316;DHT22;5203;48.976;8.306;2023-04-03T11:42:37;10.10;38.50
10316;DHT22;5203;48.976;8.306;2023-04-03T11:45:25;10.10;37.60
10316;DHT22;5203;48.976;8.306;2023-04-03T11:48:00;10.30;37.70
10316;DHT22;5203;48.976;8.306;2023-04-03T11:50:42;10.40;38.20
10316;DHT22;5203;48.976;8.306;2023-04-03T12:05:52;10.90;37.60
10316;DHT22;5203;48.976;8.306;2023-04-03T12:16:29;10.50;37.60
10316;DHT22;5203;48.976;8.306;2023-04-03T12:51:36;10.10;38.90
10316;DHT22;5203;48.976;8.306;2023-04-03T12:54:30;10.10;38.60
10316;DHT22;5203;48.976;8.306;2023-04-03T12:57:19;10.00;39.90
10316;DHT22;5203;48.976;8.306;2023-04-03T12:59:46;9.90;39.90
10316;DHT22;5203;48.976;8.306;2023-04-03T13:02:31;9.80;40.30
10316;DHT22;5203;48.976;8.306;2023-04-03T13:05:04;9.90;40.20
10316;DHT22;5203;48.976;8.306;2023-04-03T13:07:34;9.80;38.60
10316;DHT22;5203;48.976;8.306;2023-04-03T13:12:27;9.70;38.50
10316;DHT22;5203;48.976;8.306;2023-04-03T13:14:56;9.80;39.50
10316;DHT22;5203;48.976;8.306;2023-04-03T13:17:23;9.90;38.90
10316;DHT22;5203;48.976;8.306;2023-04-03T13:19:50;9.90;38.60
10316;DHT22;5203;48.976;8.306;2023-04-03T13:24:46;9.80;39.00
10316;DHT22;5203;48.976;8.306;2023-04-03T13:27:13;9.90;39.40
10316;DHT22;5203;48.976;8.306;2023-04-03T13:29:39;10.00;39.10
10316;DHT22;5203;48.976;8.306;2023-04-03T13:32:06;10.00;39.20
10316;DHT22;5203;48.976;8.306;2023-04-03T13:34:38;9.90;40.50
10316;DHT22;5203;48.976;8.306;2023-04-03T13:37:06;9.90;38.90
10316;DHT22;5203;48.976;8.306;2023-04-03T13:39:36;9.80;39.40
10316;DHT22;5203;48.976;8.306;2023-04-03T13:42:16;9.90;39.30
10316;DHT22;5203;48.976;8.306;2023-04-03T13:44:43;10.00;38.80
10316;DHT22;5203;48.976;8.306;2023-04-03T13:49:43;9.80;36.60
10316;DHT22;5203;48.976;8.306;2023-04-03T13:52:30;9.90;36.50
10316;DHT22;5203;48.976;8.306;2023-04-03T13:54:59;10.10;36.60
10316;DHT22;5203;48.976;8.306;2023-04-03T13:57:26;10.40;34.00
10316;DHT22;5203;48.976;8.306;2023-04-03T13:59:52;11.30;33.40
10316;DHT22;5203;48.976;8.306;2023-04-03T14:02:29;11.70;33.00
10316;DHT22;5203;48.976;8.306;2023-04-03T14:04:58;12.10;31.20
10316;DHT22;5203;48.976;8.306;2023-04-03T14:07:27;11.70;32.40
10316;DHT22;5203;48.976;8.306;2023-04-03T14:09:53;11.60;33.60
10316;DHT22;5203;48.976;8.306;2023-04-03T14:12:35;11.60;32.70
10316;DHT22;5203;48.976;8.306;2023-04-03T14:15:06;11.30;33.30
10316;DHT22;5203;48.976;8.306;2023-04-03T14:17:36;11.30;33.30
10316;DHT22;5203;48.976;8.306;2023-04-03T14:20:03;11.00;34.40
10316;DHT22;5203;48.976;8.306;2023-04-03T14:22:31;10.90;34.10
10316;DHT22;5203;48.976;8.306;2023-04-03T14:24:58;10.70;34.50
10316;DHT22;5203;48.976;8.306;2023-04-03T14:27:34;10.40;34.00
10316;DHT22;5203;48.976;8.306;2023-04-03T14:30:02;10.30;35.30
10316;DHT22;5203;48.976;8.306;2023-04-03T14:32:29;10.10;36.70
10316;DHT22;5203;48.976;8.306;2023-04-03T14:34:55;10.20;38.20
10316;DHT22;5203;48.976;8.306;2023-04-03T14:37:25;10.40;38.70
10316;DHT22;5203;48.976;8.306;2023-04-03T14:39:53;10.40;38.60
10316;DHT22;5203;48.976;8.306;2023-04-03T14:42:29;10.30;38.80
10316;DHT22;5203;48.976;8.306;2023-04-03T14:44:55;10.20;38.80
10316;DHT22;5203;48.976;8.306;2023-04-03T14:47:24;10.10;39.80
10316;DHT22;5203;48.976;8.306;2023-04-03T14:49:51;9.90;39.60
10316;DHT22;5203;48.976;8.306;2023-04-03T14:52:24;9.90;39.80
10316;DHT22;5203;48.976;8.306;2023-04-03T14:54:51;9.90;39.60
10316;DHT22;5203;48.976;8.306;2023-04-03T14:57:17;9.90;39.70
10316;DHT22;5203;48.976;8.306;2023-04-03T14:59:44;9.70;40.50
10316;DHT22;5203;48.976;8.306;2023-04-03T15:02:31;9.60;39.20
10316;DHT22;5203;48.976;8.306;2023-04-03T15:04:59;9.80;40.00
10316;DHT22;5203;48.976;8.306;2023-04-03T15:07:27;9.60;38.50
10316;DHT22;5203;48.976;8.306;2023-04-03T15:09:53;9.60;38.40
10316;DHT22;5203;48.976;8.306;2023-04-03T15:12:22;9.60;38.60
10316;DHT22;5203;48.976;8.306;2023-04-03T15:14:48;9.60;38.30
10316;DHT22;5203;48.976;8.306;2023-04-03T15:17:21;9.60;38.40
10316;DHT22;5203;48.976;8.306;2023-04-03T15:19:47;10.10;37.70
10316;DHT22;5203;48.976;8.306;2023-04-03T15:22:14;9.90;36.90
10316;DHT22;5203;48.976;8.306;2023-04-03T15:24:41;9.70;37.10
10316;DHT22;5203;48.976;8.306;2023-04-03T15:27:08;10.10;36.10
10316;DHT22;5203;48.976;8.306;2023-04-03T15:29:34;10.80;33.90
10316;DHT22;5203;48.976;8.306;2023-04-03T15:32:00;12.10;32.80
10316;DHT22;5203;48.976;8.306;2023-04-03T15:34:26;13.00;30.20
10316;DHT22;5203;48.976;8.306;2023-04-03T15:36:52;12.60;30.60
10316;DHT22;5203;48.976;8.306;2023-04-03T15:39:18;11.80;32.30
10316;DHT22;5203;48.976;8.306;2023-04-03T15:41:44;11.50;32.80
10316;DHT22;5203;48.976;8.306;2023-04-03T15:44:10;11.00;33.20
10316;DHT22;5203;48.976;8.306;2023-04-03T15:46:37;11.20;34.50
10316;DHT22;5203;48.976;8.306;2023-04-03T15:49:04;11.90;33.30
10316;DHT22;5203;48.976;8.306;2023-04-03T15:51:30;11.80;32.40
10316;DHT22;5203;48.976;8.306;2023-04-03T15:53:56;12.00;32.70
10316;DHT22;5203;48.976;8.306;2023-04-03T15:56:21;12.60;31.00
10316;DHT22;5203;48.976;8.306;2023-04-03T15:58:47;13.10;31.50
10316;DHT22;5203;48.976;8.306;2023-04-03T16:01:12;13.60;30.10
10316;DHT22;5203;48.976;8.306;2023-04-03T16:03:40;13.40;29.10
10316;DHT22;5203;48.976;8.306;2023-04-03T16:06:12;12.70;30.80
10316;DHT22;5203;48.976;8.306;2023-04-03T16:08:38;11.80;31.50
10316;DHT22;5203;48.976;8.306;2023-04-03T16:11:04;11.70;31.90
10316;DHT22;5203;48.976;8.306;2023-04-03T16:13:29;11.40;32.30
10316;DHT22;5203;48.976;8.306;2023-04-03T16:15:56;11.90;31.90
10316;DHT22;5203;48.976;8.306;2023-04-03T16:18:21;12.40;30.80
10316;DHT22;5203;48.976;8.306;2023-04-03T16:20:47;12.80;29.90
10316;DHT22;5203;48.976;8.306;2023-04-03T16:23:13;12.80;29.50
10316;DHT22;5203;48.976;8.306;2023-04-03T16:25:39;12.90;29.60
10316;DHT22;5203;48.976;8.306;2023-04-03T16:28:05;12.80;29.40
10316;DHT22;5203;48.976;8.306;2023-04-03T16:30:32;12.80;30.10
10316;DHT22;5203;48.976;8.306;2023-04-03T16:32:58;12.80;29.10
10316;DHT22;5203;48.976;8.306;2023-04-03T16:35:23;13.00;29.00
10316;DHT22;5203;48.976;8.306;2023-04-03T16:37:49;13.10;28.80
10316;DHT22;5203;48.976;8.306;2023-04-03T16:40:15;12.90;28.50
10316;DHT22;5203;48.976;8.306;2023-04-03T16:42:41;12.90;28.70
10316;DHT22;5203;48.976;8.306;2023-04-03T16:45:07;13.20;28.90
10316;DHT22;5203;48.976;8.306;2023-04-03T16:47:33;13.20;28.40
10316;DHT22;5203;48.976;8.306;2023-04-03T16:49:58;13.40;28.60
10316;DHT22;5203;48.976;8.306;2023-04-03T16:52:24;13.40;28.30
10316;DHT22;5203;48.976;8.306;2023-04-03T16:54:50;13.50;28.70
10316;DHT22;5203;48.976;8.306;2023-04-03T16:57:21;13.10;28.10
10316;DHT22;5203;48.976;8.306;2023-04-03T16:59:46;13.20;28.30
10316;DHT22;5203;48.976;8.306;2023-04-03T17:02:12;13.10;28.10
10316;DHT22;5203;48.976;8.306;2023-04-03T17:04:38;12.40;28.50
10316;DHT22;5203;48.976;8.306;2023-04-03T17:07:03;12.10;28.50
10316;DHT22;5203;48.976;8.306;2023-04-03T17:09:32;12.00;29.10
10316;DHT22;5203;48.976;8.306;2023-04-03T17:11:58;11.60;29.30
10316;DHT22;5203;48.976;8.306;2023-04-03T17:14:23;11.50;30.00
10316;DHT22;5203;48.976;8.306;2023-04-03T17:16:49;11.40;30.10
10316;DHT22;5203;48.976;8.306;2023-04-03T17:19:15;11.10;30.90
10316;DHT22;5203;48.976;8.306;2023-04-03T17:21:43;10.90;31.50
10316;DHT22;5203;48.976;8.306;2023-04-03T17:24:10;10.70;32.40
10316;DHT22;5203;48.976;8.306;2023-04-03T17:26:38;10.50;31.80
10316;DHT22;5203;48.976;8.306;2023-04-03T17:29:04;10.30;32.20
10316;DHT22;5203;48.976;8.306;2023-04-03T17:31:30;10.00;32.90
10316;DHT22;5203;48.976;8.306;2023-04-03T17:33:56;9.90;32.80
10316;DHT22;5203;48.976;8.306;2023-04-03T17:36:22;9.80;34.10
10316;DHT22;5203;48.976;8.306;2023-04-03T17:38:50;9.60;34.30
10316;DHT22;5203;48.976;8.306;2023-04-03T17:41:16;9.40;35.20
10316;DHT22;5203;48.976;8.306;2023-04-03T17:43:41;9.30;35.50
10316;DHT22;5203;48.976;8.306;2023-04-03T17:46:09;9.10;35.80
10316;DHT22;5203;48.976;8.306;2023-04-03T17:48:37;9.00;36.30
10316;DHT22;5203;48.976;8.306;2023-04-03T17:51:05;9.00;35.80
10316;DHT22;5203;48.976;8.306;2023-04-03T17:53:30;9.00;37.00
10316;DHT22;5203;48.976;8.306;2023-04-03T17:55:56;9.00;36.30
10316;DHT22;5203;48.976;8.306;2023-04-03T17:58:21;9.10;36.80
10316;DHT22;5203;48.976;8.306;2023-04-03T18:00:47;9.00;36.70
10316;DHT22;5203;48.976;8.306;2023-04-03T18:03:13;9.00;36.50
10316;DHT22;5203;48.976;8.306;2023-04-03T18:05:39;8.80;36.50
10316;DHT22;5203;48.976;8.306;2023-04-03T18:08:06;8.70;37.10
10316;DHT22;5203;48.976;8.306;2023-04-03T18:10:33;8.60;37.20
10316;DHT22;5203;48.976;8.306;2023-04-03T18:12:59;8.60;37.10
10316;DHT22;5203;48.976;8.306;2023-04-03T18:15:25;8.60;37.40
10316;DHT22;5203;48.976;8.306;2023-04-03T18:17:51;8.50;37.40
10316;DHT22;5203;48.976;8.306;2023-04-03T18:20:21;8.50;38.00